WZZ30SL LIEA-LHBP
Flight info
| Callsign | WZZ30SL |
|---|---|
| Flight time | 1h 31m |
| Altitude | 36000 |
| Route | KOLUS DCT IDEPA DCT ADRUX DCT MAMAR DCT IBENI DCT KOPRY DCT ULZAK |
| Aircraft | A321/M-SDE1E2E3FGIJ1J4RWXY/LB1 |
Departure
| Time | 2026-05-08 10:40 |
|---|---|
| Airport | Alghero-Fertilia Airport (LIEA) |
Arrival
| Time | 2026-05-08 12:11 |
|---|---|
| Airport | Budapest Liszt Ferenc International Airport (LHBP) |
| Time | Latitude | Longitude | Altitude | Speed | Heading |
|---|---|---|---|---|---|
| 2026-05-08 10:17 | 40.63169 | 8.29504 | 90 ft | 0 kts | 115° |
| 2026-05-08 10:32 | 40.63175 | 8.29487 | 93 ft | 4 kts | 124° |
| 2026-05-08 10:32 | 40.63193 | 8.29465 | 93 ft | 4 kts | 165° |
| 2026-05-08 10:33 | 40.63214 | 8.29465 | 91 ft | 1 kts | 204° |
| 2026-05-08 10:33 | 40.63215 | 8.29465 | 91 ft | 1 kts | 204° |
| 2026-05-08 10:36 | 40.63213 | 8.29464 | 91 ft | 1 kts | 204° |
| 2026-05-08 10:37 | 40.63176 | 8.29442 | 95 ft | 12 kts | 204° |
| 2026-05-08 10:37 | 40.63070 | 8.29380 | 93 ft | 19 kts | 204° |
| 2026-05-08 10:37 | 40.62945 | 8.29303 | 93 ft | 19 kts | 204° |
| 2026-05-08 10:37 | 40.62866 | 8.29223 | 89 ft | 14 kts | 248° |
| 2026-05-08 10:38 | 40.62825 | 8.29096 | 90 ft | 14 kts | 231° |
| 2026-05-08 10:38 | 40.62727 | 8.29034 | 87 ft | 17 kts | 204° |
| 2026-05-08 10:38 | 40.62619 | 8.28969 | 83 ft | 13 kts | 206° |
| 2026-05-08 10:38 | 40.62613 | 8.28863 | 84 ft | 14 kts | 311° |
| 2026-05-08 10:39 | 40.62699 | 8.28833 | 86 ft | 10 kts | 352° |
| 2026-05-08 10:39 | 40.62726 | 8.28791 | 87 ft | 4 kts | 304° |
| 2026-05-08 10:39 | 40.62740 | 8.28793 | 89 ft | 1 kts | 11° |
| 2026-05-08 10:39 | 40.62770 | 8.28812 | 89 ft | 17 kts | 25° |
| 2026-05-08 10:40 | 40.63131 | 8.29029 | 99 ft | 95 kts | 24° |
| 2026-05-08 10:40 | 40.63942 | 8.29521 | 125 ft | 155 kts | 26° |
| 2026-05-08 10:40 | 40.64909 | 8.30099 | 871 ft | 152 kts | 26° |
| 2026-05-08 10:40 | 40.65867 | 8.30677 | 1598 ft | 153 kts | 26° |
| 2026-05-08 10:41 | 40.66897 | 8.31300 | 1972 ft | 173 kts | 26° |
| 2026-05-08 10:41 | 40.68062 | 8.32004 | 2309 ft | 195 kts | 25° |
| 2026-05-08 10:41 | 40.69368 | 8.32791 | 2595 ft | 218 kts | 25° |
| 2026-05-08 10:41 | 40.70827 | 8.33669 | 2903 ft | 243 kts | 25° |
| 2026-05-08 10:42 | 40.72436 | 8.34636 | 3438 ft | 261 kts | 25° |
| 2026-05-08 10:42 | 40.74094 | 8.35634 | 4331 ft | 263 kts | 25° |
| 2026-05-08 10:42 | 40.75769 | 8.36643 | 5190 ft | 267 kts | 26° |
| 2026-05-08 10:42 | 40.77441 | 8.37744 | 6054 ft | 270 kts | 35° |
| 2026-05-08 10:43 | 40.78861 | 8.39353 | 6913 ft | 270 kts | 51° |
| 2026-05-08 10:43 | 40.79882 | 8.41430 | 7753 ft | 272 kts | 66° |
| 2026-05-08 10:43 | 40.80546 | 8.43780 | 8582 ft | 275 kts | 71° |
| 2026-05-08 10:43 | 40.81185 | 8.46174 | 9449 ft | 278 kts | 71° |
| 2026-05-08 10:44 | 40.81830 | 8.48597 | 10242 ft | 283 kts | 71° |
| 2026-05-08 10:44 | 40.82510 | 8.51147 | 10547 ft | 306 kts | 70° |
| 2026-05-08 10:44 | 40.83414 | 8.53799 | 10853 ft | 325 kts | 64° |
| 2026-05-08 10:44 | 40.84455 | 8.56506 | 11425 ft | 335 kts | 63° |
| 2026-05-08 10:45 | 40.85551 | 8.59247 | 12086 ft | 341 kts | 62° |
| 2026-05-08 10:45 | 40.86679 | 8.62038 | 12756 ft | 347 kts | 61° |
| 2026-05-08 10:45 | 40.87824 | 8.64882 | 13437 ft | 354 kts | 60° |
| 2026-05-08 10:45 | 40.88983 | 8.67784 | 14047 ft | 360 kts | 61° |
| 2026-05-08 10:46 | 40.90153 | 8.70741 | 14664 ft | 366 kts | 62° |
| 2026-05-08 10:46 | 40.91334 | 8.73740 | 15330 ft | 370 kts | 62° |
| 2026-05-08 10:46 | 40.92526 | 8.76779 | 15961 ft | 375 kts | 61° |
| 2026-05-08 10:46 | 40.93734 | 8.79866 | 16561 ft | 381 kts | 61° |
| 2026-05-08 10:47 | 40.94961 | 8.83003 | 17168 ft | 387 kts | 61° |
| 2026-05-08 10:47 | 40.96209 | 8.86187 | 17756 ft | 393 kts | 61° |
| 2026-05-08 10:47 | 40.97476 | 8.89422 | 18334 ft | 399 kts | 61° |
| 2026-05-08 10:47 | 40.98761 | 8.92706 | 18860 ft | 405 kts | 60° |
| 2026-05-08 10:48 | 41.00062 | 8.96036 | 19389 ft | 410 kts | 61° |
| 2026-05-08 10:48 | 41.01370 | 8.99401 | 20013 ft | 412 kts | 61° |
| 2026-05-08 10:48 | 41.02683 | 9.02785 | 20590 ft | 416 kts | 60° |
| 2026-05-08 10:48 | 41.03994 | 9.06168 | 21131 ft | 421 kts | 60° |
| 2026-05-08 10:49 | 41.05340 | 9.09633 | 21691 ft | 425 kts | 60° |
| 2026-05-08 10:49 | 41.06695 | 9.13119 | 22354 ft | 426 kts | 61° |
| 2026-05-08 10:49 | 41.08058 | 9.16622 | 22959 ft | 429 kts | 60° |
| 2026-05-08 10:49 | 41.09432 | 9.20158 | 23503 ft | 433 kts | 60° |
| 2026-05-08 10:50 | 41.10814 | 9.23733 | 23940 ft | 438 kts | 60° |
| 2026-05-08 10:50 | 41.12206 | 9.27347 | 24342 ft | 442 kts | 60° |
| 2026-05-08 10:50 | 41.13610 | 9.31001 | 24741 ft | 447 kts | 60° |
| 2026-05-08 10:50 | 41.15026 | 9.34694 | 25135 ft | 451 kts | 60° |
| 2026-05-08 10:51 | 41.16459 | 9.38421 | 25528 ft | 455 kts | 59° |
| 2026-05-08 10:51 | 41.17906 | 9.42183 | 25941 ft | 460 kts | 60° |
| 2026-05-08 10:51 | 41.19359 | 9.45963 | 26384 ft | 462 kts | 59° |
| 2026-05-08 10:51 | 41.20822 | 9.49781 | 26776 ft | 466 kts | 59° |
| 2026-05-08 10:52 | 41.22296 | 9.53635 | 27135 ft | 470 kts | 59° |
| 2026-05-08 10:52 | 41.23783 | 9.57525 | 27500 ft | 474 kts | 59° |
| 2026-05-08 10:52 | 41.25282 | 9.61450 | 27868 ft | 478 kts | 59° |
| 2026-05-08 10:52 | 41.26792 | 9.65411 | 28221 ft | 482 kts | 58° |
| 2026-05-08 10:53 | 41.28314 | 9.69406 | 28582 ft | 486 kts | 58° |
| 2026-05-08 10:53 | 41.29845 | 9.73438 | 28929 ft | 490 kts | 58° |
| 2026-05-08 10:53 | 41.31386 | 9.77505 | 29272 ft | 494 kts | 58° |
| 2026-05-08 10:53 | 41.32939 | 9.81605 | 29610 ft | 498 kts | 58° |
| 2026-05-08 10:54 | 41.34503 | 9.85736 | 29958 ft | 501 kts | 58° |
| 2026-05-08 10:54 | 41.36074 | 9.89889 | 30366 ft | 503 kts | 58° |
| 2026-05-08 10:54 | 41.37647 | 9.94053 | 30749 ft | 504 kts | 58° |
| 2026-05-08 10:54 | 41.39223 | 9.98228 | 31063 ft | 506 kts | 58° |
| 2026-05-08 10:55 | 41.40808 | 10.02441 | 31367 ft | 509 kts | 58° |
| 2026-05-08 10:55 | 41.42391 | 10.06661 | 31773 ft | 509 kts | 58° |
| 2026-05-08 10:55 | 41.43973 | 10.10887 | 32182 ft | 510 kts | 57° |
| 2026-05-08 10:55 | 41.45557 | 10.15116 | 32576 ft | 510 kts | 57° |
| 2026-05-08 10:56 | 41.47143 | 10.19350 | 32964 ft | 511 kts | 57° |
| 2026-05-08 10:56 | 41.48729 | 10.23592 | 33379 ft | 511 kts | 57° |
| 2026-05-08 10:56 | 41.50308 | 10.27832 | 33792 ft | 510 kts | 57° |
| 2026-05-08 10:56 | 41.51866 | 10.32019 | 34153 ft | 511 kts | 57° |
| 2026-05-08 10:57 | 41.53443 | 10.36255 | 34587 ft | 508 kts | 58° |
| 2026-05-08 10:57 | 41.55010 | 10.40461 | 35041 ft | 505 kts | 58° |
| 2026-05-08 10:57 | 41.58108 | 10.48834 | 35805 ft | 502 kts | 59° |
| 2026-05-08 10:58 | 41.59652 | 10.53020 | 35974 ft | 502 kts | 59° |
| 2026-05-08 10:58 | 41.61186 | 10.57178 | 36009 ft | 498 kts | 59° |
| 2026-05-08 10:58 | 41.64218 | 10.65432 | 36006 ft | 492 kts | 59° |
| 2026-05-08 10:59 | 41.66741 | 10.72312 | 36003 ft | 492 kts | 59° |
| 2026-05-08 10:59 | 41.69732 | 10.80464 | 36017 ft | 491 kts | 61° |
| 2026-05-08 11:00 | 41.72722 | 10.88623 | 36002 ft | 487 kts | 60° |
| 2026-05-08 11:00 | 41.75691 | 10.96784 | 36006 ft | 487 kts | 61° |
| 2026-05-08 11:01 | 41.78657 | 11.04949 | 36006 ft | 487 kts | 59° |
| 2026-05-08 11:01 | 41.82529 | 11.12240 | 36007 ft | 476 kts | 41° |
| 2026-05-08 11:02 | 41.89819 | 11.21200 | 36009 ft | 474 kts | 38° |
| 2026-05-08 11:03 | 41.94702 | 11.27157 | 36003 ft | 475 kts | 38° |
| 2026-05-08 11:03 | 41.99587 | 11.33131 | 35991 ft | 475 kts | 39° |
| 2026-05-08 11:04 | 42.04464 | 11.39119 | 35996 ft | 475 kts | 39° |
| 2026-05-08 11:04 | 42.09343 | 11.45111 | 36012 ft | 475 kts | 40° |
| 2026-05-08 11:05 | 42.14222 | 11.51111 | 36006 ft | 475 kts | 40° |
| 2026-05-08 11:05 | 42.19092 | 11.57129 | 36005 ft | 475 kts | 40° |
| 2026-05-08 11:06 | 42.23955 | 11.63157 | 36003 ft | 475 kts | 40° |
| 2026-05-08 11:06 | 42.28826 | 11.69184 | 35992 ft | 475 kts | 40° |
| 2026-05-08 11:07 | 42.33690 | 11.75215 | 35993 ft | 474 kts | 40° |
| 2026-05-08 11:07 | 42.38538 | 11.81266 | 35994 ft | 474 kts | 40° |
| 2026-05-08 11:08 | 42.43388 | 11.87319 | 36004 ft | 474 kts | 41° |
| 2026-05-08 11:08 | 42.48237 | 11.93375 | 35995 ft | 474 kts | 41° |
| 2026-05-08 11:09 | 42.53088 | 11.99449 | 35991 ft | 475 kts | 41° |
| 2026-05-08 11:09 | 42.57904 | 12.05486 | 35980 ft | 475 kts | 41° |
| 2026-05-08 11:10 | 42.62747 | 12.11575 | 35995 ft | 475 kts | 41° |
| 2026-05-08 11:10 | 42.67588 | 12.17692 | 35997 ft | 475 kts | 41° |
| 2026-05-08 11:11 | 42.72466 | 12.23866 | 36002 ft | 476 kts | 41° |
| 2026-05-08 11:11 | 42.77310 | 12.29998 | 36019 ft | 476 kts | 41° |
| 2026-05-08 11:12 | 42.82118 | 12.36097 | 36011 ft | 476 kts | 41° |
| 2026-05-08 11:12 | 42.86951 | 12.42255 | 35998 ft | 476 kts | 42° |
| 2026-05-08 11:13 | 42.91782 | 12.48424 | 35995 ft | 475 kts | 42° |
| 2026-05-08 11:13 | 42.96609 | 12.54597 | 35999 ft | 475 kts | 42° |
| 2026-05-08 11:14 | 43.01432 | 12.60777 | 35994 ft | 475 kts | 42° |
| 2026-05-08 11:14 | 43.06253 | 12.66967 | 36000 ft | 476 kts | 42° |
| 2026-05-08 11:15 | 43.11071 | 12.73174 | 35993 ft | 476 kts | 43° |
| 2026-05-08 11:15 | 43.15888 | 12.79384 | 36002 ft | 476 kts | 43° |
| 2026-05-08 11:16 | 43.20709 | 12.85608 | 36011 ft | 476 kts | 43° |
| 2026-05-08 11:16 | 43.25522 | 12.91847 | 36035 ft | 476 kts | 43° |
| 2026-05-08 11:17 | 43.30333 | 12.98098 | 36060 ft | 476 kts | 43° |
| 2026-05-08 11:17 | 43.35149 | 13.04363 | 36053 ft | 476 kts | 43° |
| 2026-05-08 11:18 | 43.39913 | 13.10598 | 36064 ft | 476 kts | 43° |
| 2026-05-08 11:18 | 43.44715 | 13.16884 | 36049 ft | 476 kts | 43° |
| 2026-05-08 11:19 | 43.49521 | 13.23172 | 36067 ft | 477 kts | 43° |
| 2026-05-08 11:19 | 43.54324 | 13.29471 | 36069 ft | 477 kts | 43° |
| 2026-05-08 11:20 | 43.59121 | 13.35786 | 36068 ft | 477 kts | 43° |
| 2026-05-08 11:20 | 43.63915 | 13.42121 | 36066 ft | 477 kts | 43° |
| 2026-05-08 11:21 | 43.68705 | 13.48466 | 36047 ft | 477 kts | 43° |
| 2026-05-08 11:21 | 43.73498 | 13.54821 | 36059 ft | 477 kts | 43° |
| 2026-05-08 11:22 | 43.78284 | 13.61183 | 36067 ft | 477 kts | 43° |
| 2026-05-08 11:22 | 43.83067 | 13.67562 | 36067 ft | 477 kts | 43° |
| 2026-05-08 11:23 | 43.87851 | 13.73941 | 36073 ft | 477 kts | 43° |
| 2026-05-08 11:23 | 43.92627 | 13.80336 | 36071 ft | 477 kts | 44° |
| 2026-05-08 11:24 | 43.97401 | 13.86746 | 36064 ft | 477 kts | 44° |
| 2026-05-08 11:24 | 44.02168 | 13.93164 | 36073 ft | 477 kts | 43° |
| 2026-05-08 11:25 | 44.07003 | 13.99493 | 36076 ft | 477 kts | 42° |
| 2026-05-08 11:25 | 44.11892 | 14.05747 | 36074 ft | 477 kts | 42° |
| 2026-05-08 11:26 | 44.16770 | 14.12023 | 36076 ft | 477 kts | 42° |
| 2026-05-08 11:26 | 44.21617 | 14.18336 | 36258 ft | 478 kts | 43° |
| 2026-05-08 11:26 | 44.24042 | 14.21509 | 36580 ft | 478 kts | 42° |
| 2026-05-08 11:27 | 44.26465 | 14.24676 | 36869 ft | 478 kts | 42° |
| 2026-05-08 11:27 | 44.28861 | 14.27811 | 37038 ft | 479 kts | 42° |
| 2026-05-08 11:27 | 44.31290 | 14.30992 | 37053 ft | 479 kts | 42° |
| 2026-05-08 11:28 | 44.36146 | 14.37368 | 37056 ft | 478 kts | 42° |
| 2026-05-08 11:28 | 44.40988 | 14.43743 | 37055 ft | 478 kts | 42° |
| 2026-05-08 11:29 | 44.45830 | 14.50121 | 37063 ft | 478 kts | 42° |
| 2026-05-08 11:29 | 44.50676 | 14.56508 | 37054 ft | 479 kts | 42° |
| 2026-05-08 11:30 | 44.55520 | 14.62921 | 37059 ft | 479 kts | 43° |
| 2026-05-08 11:30 | 44.60364 | 14.69348 | 37066 ft | 480 kts | 42° |
| 2026-05-08 11:31 | 44.65212 | 14.75787 | 37074 ft | 480 kts | 43° |
| 2026-05-08 11:31 | 44.70056 | 14.82248 | 37072 ft | 480 kts | 43° |
| 2026-05-08 11:32 | 44.74895 | 14.88729 | 37077 ft | 480 kts | 43° |
| 2026-05-08 11:32 | 44.79730 | 14.95220 | 37090 ft | 481 kts | 43° |
| 2026-05-08 11:33 | 44.84571 | 15.01717 | 37079 ft | 480 kts | 43° |
| 2026-05-08 11:33 | 44.89410 | 15.08220 | 37086 ft | 481 kts | 43° |
| 2026-05-08 11:34 | 44.94240 | 15.14752 | 37085 ft | 481 kts | 43° |
| 2026-05-08 11:34 | 44.99036 | 15.21261 | 37092 ft | 482 kts | 43° |
| 2026-05-08 11:35 | 45.03868 | 15.27827 | 37099 ft | 482 kts | 43° |
| 2026-05-08 11:35 | 45.08708 | 15.34401 | 37103 ft | 482 kts | 43° |
| 2026-05-08 11:36 | 45.13551 | 15.40980 | 37112 ft | 483 kts | 43° |
| 2026-05-08 11:36 | 45.18389 | 15.47590 | 37107 ft | 483 kts | 43° |
| 2026-05-08 11:37 | 45.23215 | 15.54218 | 37103 ft | 483 kts | 43° |
| 2026-05-08 11:37 | 45.28044 | 15.60854 | 37100 ft | 483 kts | 43° |
| 2026-05-08 11:38 | 45.32871 | 15.67501 | 37108 ft | 483 kts | 43° |
| 2026-05-08 11:38 | 45.37698 | 15.74166 | 37106 ft | 483 kts | 43° |
| 2026-05-08 11:39 | 45.42519 | 15.80826 | 37103 ft | 483 kts | 43° |
| 2026-05-08 11:39 | 45.47334 | 15.87505 | 37110 ft | 483 kts | 43° |
| 2026-05-08 11:40 | 45.52145 | 15.94206 | 37100 ft | 484 kts | 43° |
| 2026-05-08 11:40 | 45.56960 | 16.00921 | 37101 ft | 484 kts | 43° |
| 2026-05-08 11:41 | 45.61777 | 16.07656 | 37097 ft | 485 kts | 43° |
| 2026-05-08 11:41 | 45.66594 | 16.14401 | 37098 ft | 485 kts | 43° |
| 2026-05-08 11:42 | 45.71404 | 16.21156 | 37105 ft | 485 kts | 43° |
| 2026-05-08 11:42 | 45.76205 | 16.27933 | 37111 ft | 485 kts | 43° |
| 2026-05-08 11:43 | 45.80997 | 16.34713 | 37107 ft | 484 kts | 43° |
| 2026-05-08 11:43 | 45.85793 | 16.41503 | 37104 ft | 485 kts | 43° |
| 2026-05-08 11:44 | 45.90588 | 16.48307 | 37107 ft | 485 kts | 43° |
| 2026-05-08 11:44 | 45.95380 | 16.55124 | 37097 ft | 485 kts | 43° |
| 2026-05-08 11:45 | 46.00166 | 16.61949 | 37097 ft | 485 kts | 43° |
| 2026-05-08 11:45 | 46.04950 | 16.68791 | 37095 ft | 485 kts | 43° |
| 2026-05-08 11:46 | 46.09734 | 16.75638 | 37100 ft | 486 kts | 43° |
| 2026-05-08 11:46 | 46.13717 | 16.81356 | 37112 ft | 486 kts | 43° |
| 2026-05-08 11:47 | 46.18496 | 16.88261 | 37107 ft | 486 kts | 43° |
| 2026-05-08 11:47 | 46.23261 | 16.95198 | 37101 ft | 487 kts | 46° |
| 2026-05-08 11:47 | 46.25880 | 17.00446 | 37102 ft | 488 kts | 58° |
| 2026-05-08 11:48 | 46.27070 | 17.03269 | 37093 ft | 488 kts | 58° |
| 2026-05-08 11:48 | 46.30613 | 17.11649 | 37103 ft | 489 kts | 58° |
| 2026-05-08 11:49 | 46.34147 | 17.20073 | 37087 ft | 490 kts | 58° |
| 2026-05-08 11:49 | 46.35903 | 17.24287 | 36750 ft | 488 kts | 58° |
| 2026-05-08 11:49 | 46.37651 | 17.28496 | 36169 ft | 488 kts | 58° |
| 2026-05-08 11:49 | 46.39397 | 17.32709 | 35578 ft | 488 kts | 58° |
| 2026-05-08 11:50 | 46.41138 | 17.36934 | 34996 ft | 489 kts | 58° |
| 2026-05-08 11:50 | 46.42874 | 17.41154 | 34546 ft | 485 kts | 58° |
| 2026-05-08 11:50 | 46.44594 | 17.45330 | 34122 ft | 482 kts | 58° |
| 2026-05-08 11:50 | 46.46309 | 17.49486 | 33631 ft | 479 kts | 57° |
| 2026-05-08 11:51 | 46.48013 | 17.53617 | 33134 ft | 476 kts | 58° |
| 2026-05-08 11:51 | 46.49704 | 17.57720 | 32654 ft | 472 kts | 58° |
| 2026-05-08 11:51 | 46.51380 | 17.61794 | 32175 ft | 468 kts | 58° |
| 2026-05-08 11:51 | 46.53018 | 17.65784 | 31702 ft | 465 kts | 58° |
| 2026-05-08 11:52 | 46.54665 | 17.69804 | 31236 ft | 461 kts | 58° |
| 2026-05-08 11:52 | 46.56295 | 17.73791 | 30780 ft | 458 kts | 58° |
| 2026-05-08 11:52 | 46.57935 | 17.77810 | 30346 ft | 455 kts | 59° |
| 2026-05-08 11:52 | 46.59542 | 17.81752 | 29872 ft | 452 kts | 59° |
| 2026-05-08 11:53 | 46.61135 | 17.85666 | 29398 ft | 448 kts | 58° |
| 2026-05-08 11:53 | 46.62694 | 17.89505 | 28907 ft | 445 kts | 58° |
| 2026-05-08 11:53 | 46.64262 | 17.93365 | 28451 ft | 441 kts | 58° |
| 2026-05-08 11:53 | 46.65817 | 17.97193 | 28008 ft | 437 kts | 58° |
| 2026-05-08 11:54 | 46.67356 | 18.00990 | 27585 ft | 433 kts | 58° |
| 2026-05-08 11:54 | 46.68878 | 18.04756 | 27171 ft | 430 kts | 58° |
| 2026-05-08 11:54 | 46.70382 | 18.08488 | 26793 ft | 426 kts | 58° |
| 2026-05-08 11:54 | 46.71875 | 18.12195 | 26379 ft | 421 kts | 58° |
| 2026-05-08 11:55 | 46.73351 | 18.15858 | 25742 ft | 416 kts | 58° |
| 2026-05-08 11:55 | 46.74807 | 18.19476 | 25124 ft | 411 kts | 57° |
| 2026-05-08 11:55 | 46.76243 | 18.23044 | 24527 ft | 406 kts | 57° |
| 2026-05-08 11:55 | 46.77664 | 18.26581 | 23929 ft | 402 kts | 57° |
| 2026-05-08 11:56 | 46.79065 | 18.30079 | 23267 ft | 397 kts | 57° |
| 2026-05-08 11:56 | 46.80447 | 18.33533 | 22567 ft | 391 kts | 58° |
| 2026-05-08 11:56 | 46.81809 | 18.36952 | 21889 ft | 386 kts | 58° |
| 2026-05-08 11:56 | 46.83146 | 18.40317 | 21208 ft | 380 kts | 58° |
| 2026-05-08 11:57 | 46.84462 | 18.43627 | 20578 ft | 375 kts | 58° |
| 2026-05-08 11:57 | 46.85763 | 18.46898 | 19953 ft | 370 kts | 58° |
| 2026-05-08 11:57 | 46.87051 | 18.50138 | 19316 ft | 365 kts | 59° |
| 2026-05-08 11:57 | 46.88317 | 18.53324 | 18702 ft | 360 kts | 59° |
| 2026-05-08 11:58 | 46.89565 | 18.56470 | 18061 ft | 355 kts | 59° |
| 2026-05-08 11:58 | 46.90796 | 18.59577 | 17351 ft | 351 kts | 59° |
| 2026-05-08 11:58 | 46.92013 | 18.62653 | 16658 ft | 347 kts | 59° |
| 2026-05-08 11:59 | 46.94411 | 18.68718 | 15484 ft | 342 kts | 60° |
| 2026-05-08 11:59 | 46.95598 | 18.71724 | 15105 ft | 339 kts | 60° |
| 2026-05-08 11:59 | 46.96775 | 18.74706 | 14706 ft | 337 kts | 60° |
| 2026-05-08 11:59 | 46.97943 | 18.77666 | 14314 ft | 334 kts | 60° |
| 2026-05-08 12:00 | 46.99098 | 18.80601 | 13907 ft | 332 kts | 60° |
| 2026-05-08 12:00 | 47.00245 | 18.83523 | 13491 ft | 330 kts | 60° |
| 2026-05-08 12:00 | 47.01387 | 18.86436 | 13067 ft | 328 kts | 60° |
| 2026-05-08 12:00 | 47.02516 | 18.89323 | 12652 ft | 325 kts | 60° |
| 2026-05-08 12:01 | 47.03635 | 18.92186 | 12250 ft | 323 kts | 60° |
| 2026-05-08 12:01 | 47.04747 | 18.95029 | 11854 ft | 320 kts | 60° |
| 2026-05-08 12:01 | 47.05849 | 18.97848 | 11465 ft | 318 kts | 60° |
| 2026-05-08 12:01 | 47.06943 | 19.00650 | 11097 ft | 315 kts | 59° |
| 2026-05-08 12:02 | 47.08025 | 19.03427 | 10704 ft | 312 kts | 59° |
| 2026-05-08 12:02 | 47.09098 | 19.06183 | 10343 ft | 310 kts | 59° |
| 2026-05-08 12:02 | 47.10151 | 19.08895 | 10158 ft | 301 kts | 59° |
| 2026-05-08 12:02 | 47.11174 | 19.11530 | 9910 ft | 294 kts | 59° |
| 2026-05-08 12:03 | 47.12184 | 19.14129 | 9555 ft | 292 kts | 59° |
| 2026-05-08 12:03 | 47.13184 | 19.16710 | 9202 ft | 290 kts | 59° |
| 2026-05-08 12:03 | 47.14179 | 19.19279 | 8848 ft | 288 kts | 59° |
| 2026-05-08 12:03 | 47.15164 | 19.21821 | 8532 ft | 285 kts | 59° |
| 2026-05-08 12:04 | 47.16116 | 19.24283 | 8365 ft | 269 kts | 59° |
| 2026-05-08 12:04 | 47.17031 | 19.26644 | 7997 ft | 262 kts | 59° |
| 2026-05-08 12:04 | 47.17924 | 19.28954 | 7559 ft | 259 kts | 59° |
| 2026-05-08 12:04 | 47.18809 | 19.31252 | 7108 ft | 257 kts | 59° |
| 2026-05-08 12:05 | 47.19684 | 19.33524 | 6665 ft | 254 kts | 59° |
| 2026-05-08 12:05 | 47.20550 | 19.35771 | 6190 ft | 252 kts | 60° |
| 2026-05-08 12:05 | 47.21414 | 19.38021 | 5782 ft | 253 kts | 60° |
| 2026-05-08 12:05 | 47.22340 | 19.40213 | 5456 ft | 251 kts | 50° |
| 2026-05-08 12:06 | 47.23565 | 19.42018 | 5146 ft | 250 kts | 41° |
| 2026-05-08 12:06 | 47.24841 | 19.43724 | 4786 ft | 246 kts | 41° |
| 2026-05-08 12:06 | 47.26108 | 19.45424 | 4345 ft | 245 kts | 41° |
| 2026-05-08 12:06 | 47.27358 | 19.47103 | 4032 ft | 240 kts | 41° |
| 2026-05-08 12:07 | 47.28713 | 19.48411 | 3840 ft | 228 kts | 13° |
| 2026-05-08 12:07 | 47.30189 | 19.48217 | 3753 ft | 209 kts | 330° |
| 2026-05-08 12:07 | 47.31322 | 19.46945 | 3555 ft | 204 kts | 314° |
| 2026-05-08 12:07 | 47.32303 | 19.45449 | 3303 ft | 202 kts | 310° |
| 2026-05-08 12:08 | 47.33250 | 19.43935 | 3035 ft | 200 kts | 310° |
| 2026-05-08 12:08 | 47.34189 | 19.42427 | 2770 ft | 200 kts | 311° |
| 2026-05-08 12:08 | 47.35129 | 19.40918 | 2503 ft | 199 kts | 311° |
| 2026-05-08 12:08 | 47.36065 | 19.39414 | 2238 ft | 197 kts | 311° |
| 2026-05-08 12:09 | 47.36969 | 19.37963 | 1998 ft | 188 kts | 311° |
| 2026-05-08 12:09 | 47.37823 | 19.36590 | 1729 ft | 175 kts | 311° |
| 2026-05-08 12:09 | 47.38615 | 19.35315 | 1503 ft | 163 kts | 311° |
| 2026-05-08 12:09 | 47.39350 | 19.34133 | 1319 ft | 148 kts | 311° |
| 2026-05-08 12:10 | 47.40030 | 19.33041 | 1138 ft | 143 kts | 311° |
| 2026-05-08 12:10 | 47.40688 | 19.31968 | 934 ft | 141 kts | 311° |
| 2026-05-08 12:10 | 47.41348 | 19.30902 | 768 ft | 141 kts | 311° |
| 2026-05-08 12:10 | 47.42013 | 19.29842 | 580 ft | 141 kts | 311° |
| 2026-05-08 12:11 | 47.42662 | 19.28791 | 447 ft | 128 kts | 311° |
| 2026-05-08 12:11 | 47.43164 | 19.27984 | 462 ft | 90 kts | 312° |
| 2026-05-08 12:11 | 47.43529 | 19.27395 | 472 ft | 65 kts | 313° |
| 2026-05-08 12:11 | 47.43704 | 19.27068 | 474 ft | 22 kts | 296° |
| 2026-05-08 12:12 | 47.43747 | 19.26886 | 466 ft | 18 kts | 283° |
| 2026-05-08 12:12 | 47.43777 | 19.26687 | 461 ft | 21 kts | 282° |
| 2026-05-08 12:12 | 47.43803 | 19.26515 | 459 ft | 13 kts | 278° |
| 2026-05-08 12:12 | 47.43747 | 19.26414 | 458 ft | 14 kts | 223° |
| 2026-05-08 12:13 | 47.43671 | 19.26345 | 458 ft | 12 kts | 165° |
| 2026-05-08 12:13 | 47.43624 | 19.26399 | 458 ft | 7 kts | 182° |
| 2026-05-08 12:13 | 47.43599 | 19.26358 | 458 ft | 6 kts | 220° |
| 2026-05-08 12:13 | 47.43591 | 19.26349 | 458 ft | 0 kts | 220° |